Weather observations for the past three days for
Elkhart, Elkhart-Morton County Airport
Metric (Imperial)
Date Time (cdt) Wind (kph) Vis. (km) Weather Sky Cond. Temperature (ºC) Relative Humidity Wind Chill (°C) Heat Index (°C) Pressure Precipitation (cm)
Air Dwpt 6 hour altimeter (cm) sea level (mb) 1 hr 3 hr 6 hr
Max. Min.
01 11:55 S 20 16.09 Fair CLR 31.7 14.3 35% 31 76.5 0.0
01 11:35 S 24 16.09 Fair CLR 31 14.1 36% 30 76.53 0.0
01 11:15 SW 24 16.09 Mostly Cloudy BKN095 29.1 13.6 39% 29 76.53 0.0
01 10:55 S 22 16.09 Partly Cloudy SCT095 29.9 13.8 37% 29 76.53 0.0
01 10:35 SW 22 16.09 Fair CLR 29.6 13.7 38% 29 76.5 0.0
01 10:15 S 22 16.09 Fair CLR 29.5 14.2 39% 29 76.5 0.0
01 09:55 S 30 16.09 Fair CLR 28.1 13.5 41% 28 76.5 0.0
01 09:35 SW 20 16.09 Fair CLR 27.3 13.8 43% 27 76.53 0.0
01 09:15 SW 15 16.09 Fair CLR 25.5 13.2 47% 26 76.53 0.0
01 08:55 SW 9 16.09 Fair CLR 23.5 14.3 56% 76.53 0.0
01 08:35 W 6 16.09 Fair CLR 21.9 13.6 59% 76.53 0.0
01 08:15 Calm 16.09 Fair CLR 20.1 14.1 69% 76.53 0.0
01 07:55 SW 11 16.09 Fair CLR 21.1 13.2 61% 76.5 0.0
01 07:35 W 15 16.09 Fair CLR 20.9 13.4 62% 76.48 0.0
01 07:15 W 15 16.09 Fair CLR 19.7 13.9 69% 76.48 0.0
01 06:55 SW 9 16.09 Fair CLR 16.9 14.1 22.2 16.1 84% 76.5 0.0
01 06:35 Calm 16.09 Fair CLR 16.3 14.1 87% 76.5 0.0
01 06:15 W 6 16.09 Fair CLR 18 14.7 81% 76.48 0.0
01 05:55 W 13 16.09 Partly Cloudy SCT100 18.1 14.9 82% 76.48 0.0
01 05:35 SW 6 16.09 Partly Cloudy SCT100 18.8 14.7 77% 76.5 0.0
01 05:15 W 11 16.09 Partly Cloudy SCT100 19.1 14.9 77% 76.5 0.0
01 04:55 W 7 16.09 Mostly Cloudy BKN100 18.8 14.9 78% 76.5 0.0
01 04:35 NW 7 16.09 Mostly Cloudy BKN100 19 14.9 77% 76.5 0.0
01 04:15 W 13 16.09 Mostly Cloudy BKN100 19 14.9 77% 76.5 0.0
01 03:55 NW 11 16.09 Mostly Cloudy BKN100 19.4 14.7 74% 76.5 0.0
01 03:35 W 19 16.09 Partly Cloudy SCT100 21.2 12.5 58% 76.5 0.0
01 03:15 SW 17 16.09 Fair CLR 21.7 12.4 56% 76.48 0.0
01 02:55 W 13 16.09 Fair CLR 20.7 13 62% 76.48 0.0
01 02:35 W 17 16.09 Fair CLR 20 13.4 66% 76.48 0.0
01 02:15 SW 15 16.09 Fair CLR 18.2 14.3 78% 76.45 0.0
01 01:55 S 15 16.09 Fair CLR 19.3 14.4 73% 76.45 0.0
01 01:35 S 17 16.09 Fair CLR 19.2 14.8 76% 76.48 0.0
01 01:15 S 13 16.09 Fair CLR 19.7 15 74% 76.48 0.0
01 00:55 Calm 16.09 Fair CLR 20.5 15.2 34.5 20.3 72% 76.48 0.0
01 00:35 Calm 16.09 Fair CLR 21.4 15.2 68% 76.5 0.0
01 00:15 Calm 16.09 Fair with Haze CLR 21.2 15.2 69% 76.48 0.0
31 23:55 Calm 16.09 Fair CLR 21.1 15.2 69% 76.48 0.0
31 23:35 NE 6 16.09 Fair CLR 21.9 15.5 67% 76.48 0.0
31 23:15 N 7 16.09 Fair CLR 21.5 15.6 69% 76.48 0.0
31 22:55 N 11 16.09 Fair CLR 22.1 15.7 67% 76.48 0.0
31 22:35 N 13 16.09 Fair CLR 22.5 15.6 65% 76.48 0.0
31 22:15 NW 11 16.09 Fair CLR 23.1 15.6 63% 76.48 0.0
31 21:55 NW 22 16.09 Fair CLR 24.3 15.3 57% 25 76.43 0.0
31 21:35 NW 24 G 37 16.09 Fair CLR 26.8 13.7 45% 27 76.38 0.0
31 21:15 S 17 16.09 Fair CLR 25.9 12.6 44% 26 76.33 0.0
31 20:55 S 17 16.09 Fair CLR 25.8 13.2 46% 26 76.28 0.0
31 20:35 S 15 16.09 Fair CLR 27.5 12.6 40% 27 76.25 0.0
31 20:15 S 19 16.09 Fair CLR 30 12.3 34% 29 76.23 0.0
31 19:50 S 24 16.09 Fair CLR 31.8 12.2 30% 31 76.23 0.0
31 19:35 S 19 16.09 Fair CLR 32.3 12.8 30% 31 76.2 0.0
31 19:15 S 22 G 30 16.09 Fair CLR 33.5 11.9 27% 32 76.2 0.0
31 18:35 SE 22 16.09 Fair CLR 35.5 11.3 23% 34 76.2 0.0
31 18:15 S 13 16.09 Fair CLR 35.9 12.7 25% 35 76.17 0.0
31 17:55 S 15 16.09 Fair CLR 35.9 13 25% 35 76.2 0.0
31 17:35 S 13 16.09 Fair CLR 36 12.6 24% 35 76.23 0.0
31 17:15 SE 7 16.09 Fair CLR 36.1 13.5 26% 35 76.23 0.0
31 16:55 S 11 16.09 Fair CLR 35.7 14.2 27% 35 76.25 0.0
31 16:35 S 19 16.09 Fair CLR 35.8 15.4 30% 36 76.28 0.0
31 16:15 SE 11 16.09 Fair CLR 35.6 14.7 29% 35 76.3 0.0
31 15:55 NE 11 16.09 Fair CLR 35.3 15.7 31% 35 76.33 0.0
31 15:35 E 9 16.09 Fair CLR 36.1 15.8 30% 36 76.35 0.0
31 15:15 W 6 16.09 Fair CLR 34.5 15.5 32% 34 76.38 0.0
31 14:55 SE 9 16.09 Fair CLR 33.5 15.6 34% 33 76.4 0.0
31 14:35 SE 9 16.09 Fair CLR 33.2 15.5 34% 33 76.4 0.0
31 14:15 S 6 16.09 Fair CLR 33.1 14.7 33% 33 76.43 0.0
31 13:55 Calm 16.09 Fair CLR 32.2 14.9 35% 32 76.45 0.0
31 13:35 SE 11 16.09 Fair CLR 32.1 15.4 36% 32 76.45 0.0
31 13:15 S 11 16.09 Fair CLR 32.4 15.6 36% 32 76.45 0.0
31 12:55 S 9 16.09 Fair CLR 31.9 15.4 32.9 18.2 37% 32 76.48 0.0
31 12:35 E 9 16.09 Fair CLR 31.8 15.5 37% 32 76.48 0.0
31 12:15 NE 7 16.09 Fair CLR 31 15.1 38% 31 76.48 0.0
31 11:55 NW 9 16.09 Fair CLR 30 15.5 41% 30 76.48 0.0
31 11:35 N 7 16.09 Fair CLR 29.4 15.4 43% 29 76.48 0.0
31 11:15 NW 15 16.09 Fair CLR 28.5 15.9 46% 29 76.45 0.0
31 10:55 NW 19 16.09 Fair CLR 28 16.6 50% 28 76.45 0.0
31 10:35 NW 19 16.09 Fair CLR 26.5 16.4 54% 27 76.43 0.0
31 10:15 NW 19 16.09 Fair CLR 25.7 16.2 56% 27 76.43 0.0
31 09:55 NW 17 16.09 Fair CLR 24.5 16.5 61% 26 76.43 0.0
31 09:35 NW 19 16.09 Fair CLR 23.6 16.3 64% 76.45 0.0
31 09:15 NW 17 16.09 Fair CLR 22.8 16.4 67% 76.45 0.0
31 08:55 W 13 16.09 Fair CLR 21.4 16.1 72% 76.43 0.0
31 08:35 W 11 16.09 Fair CLR 20.2 15.9 76% 76.45 0.0
31 08:15 NW 13 16.09 Fair CLR 19.2 15.6 80% 76.45 0.0
31 07:55 NW 11 16.09 Fair CLR 18.4 15.3 82% 76.43 0.0
31 07:35 NW 11 16.09 Fair CLR 18.4 15.2 82% 76.4 0.0
31 07:15 NW 9 16.09 Fair CLR 18.6 15.3 81% 76.4 0.0
31 06:55 NW 11 16.09 Fair CLR 18.5 15.1 28.5 18.5 81% 76.4 0.0
31 06:35 NW 15 16.09 Fair CLR 18.8 15.1 79% 76.4 0.0
31 06:15 NW 13 16.09 Fair CLR 19.3 15.4 78% 76.4 0.0
31 05:55 N 13 16.09 Fair CLR 19.1 15.6 80% 76.4 0.0
31 05:35 NW 9 16.09 Fair CLR 19.2 15.8 81% 76.4 0.0
31 05:15 N 13 16.09 Fair CLR 19.2 16.1 82% 76.38 0.0
31 04:55 N 11 16.09 Fair CLR 19.3 16.1 82% 76.38 0.0
31 04:35 N 13 16.09 Fair CLR 19.7 16.3 81% 76.38 0.0
31 04:15 N 7 16.09 Fair CLR 20 16.3 79% 76.35 0.0
31 03:55 N 9 16.09 Fair CLR 20.3 15.8 75% 76.35 0.0
31 03:35 N 13 16.09 Fair CLR 21.3 14.8 67% 76.35 0.0
31 03:15 SW 13 16.09 Fair CLR 22.2 13 56% 76.33 0.0
31 02:55 SW 11 16.09 Fair CLR 22.8 13.1 54% 76.3 0.0
31 02:35 S 13 16.09 Fair CLR 23.3 12.9 52% 76.28 0.0
31 02:15 S 15 16.09 Fair CLR 24.6 12.5 47% 26 76.28 0.0
31 01:55 S 17 16.09 Fair CLR 25.5 12.2 44% 26 76.3 0.0
31 01:35 S 19 16.09 Fair CLR 27 11.9 39% 27 76.3 0.0
31 01:15 S 19 G 30 16.09 Fair CLR 27.3 11.9 38% 27 76.3 0.0
31 00:55 S 17 16.09 Fair CLR 28.4 11.7 35.1 26.7 36% 28 76.3 0.0
31 00:35 SW 17 16.09 Fair CLR 29.5 11.5 33% 28 76.3 0.0
31 00:15 W 13 16.09 Fair CLR 29.9 11.4 32% 29 76.3 0.0
30 23:55 SW 13 16.09 Fair CLR 30.1 11.4 32% 29 76.25 0.0
30 23:35 W 11 16.09 Fair CLR 30.1 11.5 32% 29 76.25 0.0
30 23:15 N 17 16.09 Fair CLR 26.8 13.4 44% 27 76.23 0.0
30 22:55 NW 7 16.09 Fair CLR 28 12.5 38% 28 76.2 0.0
30 22:35 S 7 16.09 Fair CLR 27.7 12.3 39% 27 76.15 0.0
30 22:15 SE 13 16.09 Fair CLR 28.3 12.2 37% 28 76.12 0.0
30 21:55 SE 13 16.09 Fair CLR 28.9 12.2 36% 28 76.1 0.0
30 21:35 SE 13 16.09 Fair CLR 29.9 12.3 34% 29 76.1 0.0
30 21:15 E 15 16.09 Fair CLR 30.3 12.8 34% 29 76.07 0.0
30 20:55 E 17 16.09 Fair CLR 29.9 13.7 37% 29 76.07 0.0
30 20:35 E 19 16.09 Fair CLR 30.1 13.8 37% 29 76.05 0.0
30 20:15 E 20 16.09 Fair CLR 31 13.5 34% 30 76.05 0.0
30 19:55 E 19 16.09 Fair CLR 32.3 13.4 32% 31 76.05 0.0
30 19:35 E 19 16.09 Fair CLR 34 13.4 29% 33 76.05 0.0
30 19:15 E 19 16.09 Fair CLR 34.6 13.5 28% 34 76.02 0.0
30 18:55 NE 22 16.09 Fair CLR 35.2 13.5 38.3 32.9 27% 34 76.02 0.0
30 18:35 NE 19 16.09 Fair CLR 35.7 13.8 27% 35 76.02 0.0
30 18:15 E 20 16.09 Fair CLR 37.3 13.2 24% 37 76.02 0.0
30 17:55 NE 9 16.09 Fair CLR 35.9 13.2 25% 35 76.05 0.0
30 17:35 E 13 16.09 Fair CLR 37.4 12.5 22% 36 76.05 0.0
30 17:15 SE 9 16.09 Fair CLR 38 12.6 22% 37 76.05 0.0
30 16:55 Calm 16.09 Fair CLR 37.6 12.9 23% 37 76.07 0.0
30 16:35 S 7 16.09 Fair CLR 37.6 13.8 24% 37 76.1 0.0
30 16:15 SE 6 16.09 Fair CLR 37.9 13.4 23% 37 76.12 0.0
30 15:55 S 7 16.09 Fair CLR 37.4 12.8 23% 36 76.12 0.0
30 15:35 S 15 16.09 Fair CLR 36.7 13.9 25% 36 76.15 0.0
30 15:15 S 13 16.09 Fair CLR 36 14.6 28% 36 76.17 0.0
30 14:55 SE 11 16.09 Fair CLR 35.7 15.1 29% 36 76.2 0.0
30 14:35 SE 11 16.09 Fair CLR 35.1 15 30% 35 76.2 0.0
30 14:15 SW 6 16.09 Fair CLR 34.7 14.7 30% 34 76.23 0.0
30 13:55 N 6 16.09 Fair CLR 34.3 14.8 31% 34 76.23 0.0
30 13:35 S 9 16.09 Fair CLR 33.6 14.9 32% 33 76.25 0.0
30 13:15 NE 7 16.09 Fair CLR 34.5 13.6 28% 34 76.25 0.0
30 12:55 SE 6 16.09 Fair CLR 32.5 14.2 33.2 17.9 33% 32 76.28 0.0
30 12:35 W 7 16.09 Fair CLR 32.4 14.4 34% 32 76.28 0.0
30 12:15 NW 9 16.09 Fair CLR 31 14.7 37% 31 76.28 0.0
30 11:55 NW 7 16.09 Fair CLR 30.3 15.1 40% 30 76.3 0.0
30 11:35 W 11 16.09 Fair CLR 29.8 14.6 40% 29 76.3 0.0
30 11:15 W 7 16.09 Fair CLR 28.5 14.5 42% 28 76.3 0.0
30 10:55 NW 7 16.09 Fair CLR 27.6 14.5 45% 28 76.28 0.0
30 10:35 NW 9 16.09 Fair CLR 26.7 14.4 47% 27 76.28 0.0
30 10:15 NW 11 16.09 Fair CLR 26.2 15 50% 27 76.28 0.0
30 09:50 W 13 16.09 Fair CLR 24.8 14.5 53% 26 76.3 0.0
30 09:35 W 15 16.09 Fair CLR 24.7 14.3 52% 26 76.3 0.0
30 09:15 NW 11 16.09 Fair CLR 24.2 14.6 55% 25 76.3 0.0
30 08:55 W 11 16.09 Fair CLR 23.3 14.6 58% 76.28 0.0
30 08:35 Calm 16.09 Fair CLR 21 14.8 68% 76.28 0.0
30 08:15 W 6 16.09 Fair CLR 21.1 14.7 67% 76.28 0.0
30 07:55 W 9 16.09 Fair CLR 19.6 14.2 71% 76.25 0.0
30 07:35 W 11 16.09 Fair CLR 19.6 14.2 71% 76.28 0.0
30 07:15 W 11 16.09 Fair CLR 18 13.9 77% 76.25 0.0
30 06:55 W 7 16.09 Fair CLR 20.4 14.1 27.1 20.3 67% 76.25 0.0
30 06:35 W 13 16.09 Fair CLR 21.1 14.1 64% 76.23 0.0
30 06:15 W 15 16.09 Fair CLR 21.6 14.1 63% 76.23 0.0
30 05:55 W 20 16.09 Fair CLR 22.5 13.7 58% 76.2 0.0
30 05:30 SW 24 16.09 Fair CLR 25.2 11.6 43% 26 76.2 0.0
30 05:15 SW 22 16.09 Fair CLR 24.8 11.9 45% 26 76.2 0.0
30 04:55 SW 22 16.09 Fair CLR 25.4 11.7 42% 26 76.2 0.0
30 04:35 SW 26 16.09 Fair CLR 26.3 11.5 40% 26 76.15 0.0
30 04:15 SW 35 G 44 16.09 Fair and Breezy CLR 26.7 11.4 39% 27 76.15 0.0
30 03:55 SW 37 16.09 Fair and Breezy CLR 26.9 11.5 38% 27 76.12 0.0
30 03:35 SW 37 G 52 16.09 Fair and Breezy CLR 26.7 11.5 39% 27 76.1 0.0
30 03:15 S 39 G 48 16.09 Fair and Breezy CLR 26.5 11.6 39% 26 76.12 0.0
30 02:55 S 35 G 46 16.09 Fair and Breezy CLR 26.5 11.5 39% 26 76.12 0.0
30 02:35 S 28 G 37 16.09 Fair CLR 26.2 11.8 41% 26 76.15 0.0
30 02:15 S 26 16.09 Fair CLR 26.1 12.1 42% 26 76.15 0.0
30 01:55 S 26 16.09 Fair CLR 26.4 12.1 41% 26 76.17 0.0
30 01:35 S 26 16.09 Fair CLR 26.2 12.4 42% 26 76.2 0.0
30 01:15 S 20 16.09 Fair CLR 25.6 12.7 45% 26 76.23 0.0
30 00:55 S 20 16.09 Fair CLR 26.1 12.8 35.5 25.5 44% 26 76.25 0.0
30 00:35 S 19 16.09 Fair CLR 25.8 13.1 45% 26 76.25 0.0
30 00:15 S 17 16.09 Fair CLR 27.9 12.5 39% 27 76.28 0.0
29 23:55 SW 20 16.09 Fair CLR 28.7 12.3 36% 28 76.28 0.0
29 23:35 S 20 16.09 Fair CLR 29 12.6 36% 28 76.25 0.0
29 23:15 S 19 16.09 Fair CLR 28.1 13 39% 28 76.25 0.0
29 22:55 S 19 16.09 Fair CLR 27.4 13.2 42% 27 76.25 0.0
29 22:35 SW 22 16.09 Fair CLR 28.6 12.7 37% 28 76.23 0.0
29 22:15 S 26 16.09 Fair CLR 29.3 12.7 36% 29 76.17 0.0
29 21:55 S 26 16.09 Fair CLR 29.6 12.8 36% 29 76.12 0.0
29 21:35 S 26 16.09 Fair CLR 29.9 13 35% 29 76.1 0.0
29 21:15 S 28 16.09 Fair CLR 30.8 12.9 33% 30 76.05 0.0
29 20:55 S 30 16.09 Fair CLR 31.1 13 33% 30 76.02 0.0
29 20:35 S 26 16.09 Fair CLR 31.6 13 32% 31 76.02 0.0
29 20:15 S 22 16.09 Fair CLR 32.2 13.5 32% 31 76.02 0.0
29 19:55 S 26 16.09 Fair CLR 33.5 13.3 29% 33 76 0.0
29 19:35 S 33 16.09 Fair and Breezy CLR 34.8 13.3 27% 34 76 0.0
29 19:15 S 20 16.09 Fair CLR 35.2 12.3 25% 34 76 0.0
29 18:55 S 22 16.09 Fair CLR 35.5 11.6 38.7 33.9 23% 34 76 0.0
29 18:35 S 19 16.09 Fair CLR 35.7 12 24% 34 76 0.0
29 18:15 S 26 16.09 Fair CLR 36.6 11.2 21% 35 76 0.0
29 17:55 S 24 G 30 16.09 Fair CLR 37.7 12.3 22% 37 76.02 0.0
29 17:35 S 20 G 28 16.09 Fair CLR 37.9 12.2 21% 37 76.02 0.0
29 17:15 S 20 16.09 Fair CLR 38.2 13.2 22% 37 76.05 0.0
29 16:55 S 19 16.09 Fair CLR 38 12.5 22% 37 76.05 0.0
29 16:35 SE 24 16.09 Fair CLR 38.2 12.4 21% 37 76.07 0.0
29 16:15 S 22 16.09 Fair CLR 38.4 13.5 23% 38 76.12 0.0
29 15:55 S 22 G 33 16.09 Fair CLR 38.4 12.4 21% 37 76.15 0.0
29 15:35 SW 15 16.09 Fair CLR 38.3 11.3 20% 37 76.17 0.0
29 15:15 S 19 16.09 Fair CLR 37.9 12.3 21% 37 76.17 0.0
29 14:55 S 20 16.09 Fair CLR 37.4 12.2 22% 36 76.23 0.0
29 14:35 S 15 16.09 Fair CLR 37.1 12.1 22% 36 76.25 0.0
29 14:15 S 30 G 37 16.09 Fair CLR 36.8 12.8 24% 36 76.25 0.0
29 13:55 S 30 16.09 Fair CLR 36.7 13.1 24% 36 76.28 0.0
29 13:35 SW 26 16.09 Fair CLR 36.1 12.8 24% 35 76.3 0.0
29 13:15 SW 26 G 33 16.09 Fair CLR 35.4 13 26% 34 76.33 0.0
29 12:55 S 22 16.09 Fair CLR 33.4 13.9 34 19.4 31% 33 76.35 0.0
29 12:35 SW 30 16.09 Fair CLR 32.2 12.6 30% 31 76.38 0.0
29 12:15 SW 26 16.09 Fair CLR 32.3 13.2 31% 31 76.38 0.0
Date Time (cdt) Wind (kph) Vis. (km) Weather Sky Cond. Air Dwpt Max. Min. Relative Humidity Wind Chill (°C) Heat Index (°C) altimeter (cm) sea level (mb) 1 hr 3 hr 6 hr
6 hour
Temperature (ºC) Pressure Precipitation (cm)